This demonstration page uses our WeatherBlox Daily Observations layout. Learn more.

Left ArrowRight Arrow

38.83388, -104.82136

Hourly Observations for April 13, 2022

Temp ( °F °C ) Dew Point ( °F °C ) Humidity (%) Winds ( mph kmh ) Pressure ( in mb ) Visibility ( mi km ) Precip ( " mm )
12:58 am 00:58 Cloudy 29 -1.9 13 -10.5 52 52 E 6 9 29.41 996 10 16 0.00 0.00
1:58 am 01:58 Cloudy 28 -2.4 9 -12.7 45 45 SE 9 15 29.43 997 10 16 0.00 0.00
2:58 am 02:58 Cloudy 27 -2.6 11 -11.9 49 49 E 9 15 29.43 997 10 16 0.00 0.00
3:58 am 03:58 Cloudy 27 -3 12 -11.3 53 53 E 6 9 29.43 997 10 16 0.00 0.00
4:58 am 04:58 Cloudy 26 -3.4 9 -12.9 48 48 S 8 13 29.42 996 10 16 0.00 0.00
5:58 am 05:58 Clear 24 -4.3 5 -15 43 43 W 6 9 29.44 997 10 16 0.00 0.00
6:58 am 06:58 Mostly Sunny 22 -5.8 13 -10.4 70 70 Calm N/A 10 16 0.00 0.00
7:58 am 07:58 Sunny 25 -3.9 13 -10.3 61 61 ENE 7 11 N/A 10 16 0.00 0.00
8:58 am 08:58 Mostly Cloudy 28 -2.4 19 -7.3 69 69 ENE 7 11 N/A 10 16 0.00 0.00
9:58 am 09:58 Mostly Cloudy 32 -0.1 18 -7.8 57 57 ENE 7 11 N/A 10 16 0.00 0.00
10:18 am 10:18 Mostly Cloudy 27 -3 12 -11 54 54 Calm N/A 10 16 0.00 0.00
10:23 am 10:23 Cloudy 27 -3 12 -11 54 54 ENE 8 13 N/A 10 16 0.00 0.00
10:29 am 10:29 Cloudy with Light Snow 27 -3 12 -11 54 54 E 6 9 N/A 10 16 0.00 0.00
10:34 am 10:34 Cloudy with Light Snow 27 -3 12 -11 54 54 NNE 6 9 N/A 9 14 0.00 0.00
10:48 am 10:48 Cloudy with Light Snow 25 -4 12 -11 59 59 ESE 15 24 N/A 7 11 0.00 0.00
10:58 am 10:58 Cloudy with Light Snow 26 -3.5 13 -10.6 58 58 NNE 5 7 N/A 5 8 0.00 0.00
11:13 am 11:13 Mostly Cloudy 27 -3 10 -12 50 50 ENE 5 7 N/A 9 14 0.00 0.00
11:58 am 11:58 Mostly Cloudy 35 1.4 -3 -19.2 20 20 NW 8 13 N/A 10 16 0.00 0.00
12:02 pm 12:02 Mostly Cloudy 34 1 -4 -20 19 19 N 16 26 N/A 10 16 0.00 0.00
12:22 pm 12:22 Mostly Cloudy 34 1 -8 -22 16 16 WSW 15 24 N/A 10 16 0.00 0.00
12:58 pm 12:58 Cloudy 33 0.8 -5 -20.3 19 19 WNW 18 30 N/A 10 16 0.00 0.00
1:14 pm 13:14 Mostly Cloudy 34 1 -6 -21 18 18 N 18 30 N/A 10 16 0.00 0.00
1:50 pm 13:50 Mostly Cloudy 34 1 -6 -21 18 18 NNW 15 24 N/A 10 16 0.00 0.00
1:54 pm 13:54 Mostly Cloudy 32 0 -6 -21 19 19 WNW 18 30 N/A 10 16 0.00 0.00
1:58 pm 13:58 Partly Cloudy 32 0 -7 -21.5 18 18 NW 12 19 N/A 10 16 0.00 0.00
2:58 pm 14:58 Mostly Cloudy 34 1 -14 -25.3 12 12 NW 10 17 N/A 10 16 0.00 0.00
3:43 pm 15:43 Mostly Cloudy 34 1 -11 -24 14 14 W 17 28 N/A 10 16 0.00 0.00
3:46 pm 15:46 Mostly Cloudy 34 1 -13 -25 12 12 NW 14 22 N/A 10 16 0.00 0.00
3:58 pm 15:58 Mostly Cloudy 33 0.3 -13 -25 13 13 NNE 8 13 N/A 10 16 0.00 0.00
4:10 pm 16:10 Mostly Cloudy 34 1 -11 -24 14 14 N 13 20 N/A 10 16 0.00 0.00
4:58 pm 16:58 Mostly Cloudy 33 0.6 -10 -23.1 15 15 NW 16 26 N/A 10 16 0.00 0.00
5:58 pm 17:58 Partly Cloudy 33 0.5 -7 -21.8 17 17 NNE 5 7 N/A 10 16 0.00 0.00
6:58 pm 18:58 Mostly Cloudy 32 0.1 -2 -19.1 22 22 WNW 6 9 N/A 10 16 0.00 0.00
7:58 pm 19:58 Mostly Clear 31 -0.5 -1 -18.6 24 24 WSW 5 7 N/A 10 16 0.00 0.00
8:58 pm 20:58 Clear 31 -0.7 -2 -18.8 24 24 SSE 3 6 N/A 10 16 0.00 0.00
9:58 pm 21:58 Clear 30 -0.9 -3 -19.5 23 23 E 3 6 N/A 10 16 0.00 0.00
10:58 pm 22:58 Clear 30 -0.9 -3 -19.5 23 23 SE 6 9 N/A 10 16 0.00 0.00
11:58 pm 23:58 Clear 30 -1.3 -2 -18.8 25 25 SE 6 9 N/A 10 16 0.00 0.00

Powered by AerisWeather